sensor_id;sensor_type;location;lat;lon;timestamp;pressure;altitude;pressure_sealevel;temperature;humidity
48926;BME280;39838;59.938;30.642;2023-03-25T00:02:31;97940.06;;;4.21;89.38
48926;BME280;39838;59.938;30.642;2023-03-25T00:05:00;97922.94;;;4.20;89.42
48926;BME280;39838;59.938;30.642;2023-03-25T00:07:28;97917.81;;;4.19;89.39
48926;BME280;39838;59.938;30.642;2023-03-25T00:09:56;97905.81;;;4.19;89.94
48926;BME280;39838;59.938;30.642;2023-03-25T00:12:23;97910.09;;;4.20;89.83
48926;BME280;39838;59.938;30.642;2023-03-25T00:14:51;97904.03;;;4.23;90.63
48926;BME280;39838;59.938;30.642;2023-03-25T00:17:22;97892.09;;;4.20;90.79
48926;BME280;39838;59.938;30.642;2023-03-25T00:19:51;97886.94;;;4.22;90.96
48926;BME280;39838;59.938;30.642;2023-03-25T00:22:20;97896.38;;;4.21;92.10
48926;BME280;39838;59.938;30.642;2023-03-25T00:24:48;97896.31;;;4.24;91.16
48926;BME280;39838;59.938;30.642;2023-03-25T00:27:15;97901.41;;;4.27;91.53
48926;BME280;39838;59.938;30.642;2023-03-25T00:29:43;97898.78;;;4.30;90.93
48926;BME280;39838;59.938;30.642;2023-03-25T00:32:11;97880.78;;;4.30;90.98
48926;BME280;39838;59.938;30.642;2023-03-25T00:34:41;97889.34;;;4.31;91.36
48926;BME280;39838;59.938;30.642;2023-03-25T00:37:12;97899.59;;;4.32;91.33
48926;BME280;39838;59.938;30.642;2023-03-25T00:39:42;97885.81;;;4.36;90.90
48926;BME280;39838;59.938;30.642;2023-03-25T00:42:10;97868.69;;;4.37;91.58
48926;BME280;39838;59.938;30.642;2023-03-25T00:44:38;97897.03;;;4.32;91.81
48926;BME280;39838;59.938;30.642;2023-03-25T00:47:06;97873.88;;;4.34;91.79
48926;BME280;39838;59.938;30.642;2023-03-25T00:49:33;97918.38;;;4.37;92.02
48926;BME280;39838;59.938;30.642;2023-03-25T00:52:02;97891.75;;;4.42;91.42
48926;BME280;39838;59.938;30.642;2023-03-25T00:54:30;97885.66;;;4.46;91.52
48926;BME280;39838;59.938;30.642;2023-03-25T00:56:58;97856.56;;;4.44;92.08
48926;BME280;39838;59.938;30.642;2023-03-25T00:59:26;97856.50;;;4.48;93.10
48926;BME280;39838;59.938;30.642;2023-03-25T01:01:53;97862.34;;;4.56;93.51
48926;BME280;39838;59.938;30.642;2023-03-25T01:04:20;97866.47;;;4.65;92.94
48926;BME280;39838;59.938;30.642;2023-03-25T01:06:48;97866.38;;;4.70;93.31
48926;BME280;39838;59.938;30.642;2023-03-25T01:09:18;97867.09;;;4.78;93.68
48926;BME280;39838;59.938;30.642;2023-03-25T01:11:47;97873.81;;;4.85;93.69
48926;BME280;39838;59.938;30.642;2023-03-25T01:14:17;97858.31;;;4.89;93.24
48926;BME280;39838;59.938;30.642;2023-03-25T01:16:45;97853.03;;;4.96;92.62
48926;BME280;39838;59.938;30.642;2023-03-25T01:19:13;97854.66;;;5.00;93.23
48926;BME280;39838;59.938;30.642;2023-03-25T01:21:40;97844.31;;;5.03;92.36
48926;BME280;39838;59.938;30.642;2023-03-25T01:24:12;97837.44;;;5.03;92.90
48926;BME280;39838;59.938;30.642;2023-03-25T01:26:41;97850.16;;;5.11;92.95
48926;BME280;39838;59.938;30.642;2023-03-25T01:29:11;97822.88;;;5.02;92.82
48926;BME280;39838;59.938;30.642;2023-03-25T01:31:39;97841.34;;;5.21;92.72
48926;BME280;39838;59.938;30.642;2023-03-25T01:34:06;97859.28;;;5.26;92.65
48926;BME280;39838;59.938;30.642;2023-03-25T01:36:34;97851.47;;;5.30;92.07
48926;BME280;39838;59.938;30.642;2023-03-25T01:39:02;97844.50;;;5.34;92.72
48926;BME280;39838;59.938;30.642;2023-03-25T01:41:32;97852.16;;;5.38;92.71
48926;BME280;39838;59.938;30.642;2023-03-25T01:44:06;97855.47;;;5.43;91.74
48926;BME280;39838;59.938;30.642;2023-03-25T01:46:34;97853.72;;;5.45;91.80
48926;BME280;39838;59.938;30.642;2023-03-25T01:49:03;97856.22;;;5.48;91.85
48926;BME280;39838;59.938;30.642;2023-03-25T01:51:34;97853.63;;;5.50;92.79
48926;BME280;39838;59.938;30.642;2023-03-25T01:54:03;97861.22;;;5.56;92.64
48926;BME280;39838;59.938;30.642;2023-03-25T01:56:33;97844.16;;;5.51;92.30
48926;BME280;39838;59.938;30.642;2023-03-25T01:59:05;97825.59;;;5.36;92.63
48926;BME280;39838;59.938;30.642;2023-03-25T02:01:32;97859.28;;;5.66;92.42
48926;BME280;39838;59.938;30.642;2023-03-25T02:04:02;97856.56;;;5.72;92.31
48926;BME280;39838;59.938;30.642;2023-03-25T02:06:39;97831.88;;;5.62;91.93
48926;BME280;39838;59.938;30.642;2023-03-25T02:09:09;97853.84;;;5.78;92.14
48926;BME280;39838;59.938;30.642;2023-03-25T02:11:37;97856.34;;;5.81;91.95
48926;BME280;39838;59.938;30.642;2023-03-25T02:14:08;97836.72;;;5.77;92.10
48926;BME280;39838;59.938;30.642;2023-03-25T02:16:43;97851.13;;;5.84;92.82
48926;BME280;39838;59.938;30.642;2023-03-25T02:19:37;97851.09;;;5.86;92.46
48926;BME280;39838;59.938;30.642;2023-03-25T02:22:33;97856.16;;;5.90;92.61
48926;BME280;39838;59.938;30.642;2023-03-25T02:25:35;97847.56;;;5.90;92.63
48926;BME280;39838;59.938;30.642;2023-03-25T02:28:11;97838.94;;;5.92;92.04
48926;BME280;39838;59.938;30.642;2023-03-25T02:31:03;97821.81;;;5.90;92.47
48926;BME280;39838;59.938;30.642;2023-03-25T02:33:53;97851.59;;;6.01;92.27
48926;BME280;39838;59.938;30.642;2023-03-25T02:37:00;97866.88;;;6.11;92.28
48926;BME280;39838;59.938;30.642;2023-03-25T02:39:38;97863.25;;;6.18;91.84
48926;BME280;39838;59.938;30.642;2023-03-25T02:42:12;97870.03;;;6.22;92.20
48926;BME280;39838;59.938;30.642;2023-03-25T02:44:47;97873.28;;;6.30;91.98
48926;BME280;39838;59.938;30.642;2023-03-25T02:47:19;97878.41;;;6.32;91.61
48926;BME280;39838;59.938;30.642;2023-03-25T02:49:52;97865.56;;;6.28;91.78
48926;BME280;39838;59.938;30.642;2023-03-25T02:52:24;97875.72;;;6.35;91.95
48926;BME280;39838;59.938;30.642;2023-03-25T02:54:55;97867.94;;;6.36;91.36
48926;BME280;39838;59.938;30.642;2023-03-25T02:57:30;97859.41;;;6.34;91.75
48926;BME280;39838;59.938;30.642;2023-03-25T03:00:00;97879.16;;;6.35;91.69
48926;BME280;39838;59.938;30.642;2023-03-25T03:02:33;97882.63;;;6.34;91.61
48926;BME280;39838;59.938;30.642;2023-03-25T03:05:00;97866.31;;;6.34;91.67
48926;BME280;39838;59.938;30.642;2023-03-25T03:07:32;97850.25;;;6.22;91.57
48926;BME280;39838;59.938;30.642;2023-03-25T03:10:09;97851.25;;;6.17;91.39
48926;BME280;39838;59.938;30.642;2023-03-25T03:12:52;97861.19;;;6.32;91.09
48926;BME280;39838;59.938;30.642;2023-03-25T03:15:32;97852.59;;;6.32;91.19
48926;BME280;39838;59.938;30.642;2023-03-25T03:18:10;97868.13;;;6.28;90.98
48926;BME280;39838;59.938;30.642;2023-03-25T03:20:43;97863.91;;;6.26;90.68
48926;BME280;39838;59.938;30.642;2023-03-25T03:23:23;97878.44;;;6.28;90.41
48926;BME280;39838;59.938;30.642;2023-03-25T03:25:55;97873.34;;;6.27;90.51
48926;BME280;39838;59.938;30.642;2023-03-25T03:28:32;97856.19;;;6.26;90.79
48926;BME280;39838;59.938;30.642;2023-03-25T03:31:05;97871.75;;;6.21;90.16
48926;BME280;39838;59.938;30.642;2023-03-25T03:33:37;97867.63;;;6.14;89.86
48926;BME280;39838;59.938;30.642;2023-03-25T03:36:07;97866.00;;;6.12;89.67
48926;BME280;39838;59.938;30.642;2023-03-25T03:38:41;97864.41;;;6.06;88.97
48926;BME280;39838;59.938;30.642;2023-03-25T03:41:17;97873.97;;;6.01;89.20
48926;BME280;39838;59.938;30.642;2023-03-25T03:43:47;97870.63;;;5.96;89.08
48926;BME280;39838;59.938;30.642;2023-03-25T03:46:21;97859.63;;;5.88;89.42
48926;BME280;39838;59.938;30.642;2023-03-25T03:48:53;97871.75;;;5.84;88.81
48926;BME280;39838;59.938;30.642;2023-03-25T03:51:24;97870.91;;;5.84;88.65
48926;BME280;39838;59.938;30.642;2023-03-25T03:53:57;97888.16;;;5.80;89.08
48926;BME280;39838;59.938;30.642;2023-03-25T03:56:31;97866.13;;;5.67;88.75
48926;BME280;39838;59.938;30.642;2023-03-25T03:59:03;97882.38;;;5.70;88.58
48926;BME280;39838;59.938;30.642;2023-03-25T04:01:38;97897.47;;;5.86;88.70
48926;BME280;39838;59.938;30.642;2023-03-25T04:04:12;97909.53;;;5.85;88.36
48926;BME280;39838;59.938;30.642;2023-03-25T04:06:43;97897.44;;;5.87;88.38
48926;BME280;39838;59.938;30.642;2023-03-25T04:09:19;97893.97;;;5.91;87.81
48926;BME280;39838;59.938;30.642;2023-03-25T04:11:56;97903.44;;;5.88;87.73
48926;BME280;39838;59.938;30.642;2023-03-25T04:14:25;97902.53;;;5.90;87.75
48926;BME280;39838;59.938;30.642;2023-03-25T04:16:54;97887.13;;;5.87;87.57
48926;BME280;39838;59.938;30.642;2023-03-25T04:19:21;97911.91;;;5.94;87.37
48926;BME280;39838;59.938;30.642;2023-03-25T04:21:48;97915.34;;;5.95;87.70
48926;BME280;39838;59.938;30.642;2023-03-25T04:24:16;97913.66;;;5.94;87.68
48926;BME280;39838;59.938;30.642;2023-03-25T04:26:44;97923.06;;;5.96;87.91
48926;BME280;39838;59.938;30.642;2023-03-25T04:29:13;97907.59;;;5.96;87.14
48926;BME280;39838;59.938;30.642;2023-03-25T04:31:40;97911.72;;;6.02;87.04
48926;BME280;39838;59.938;30.642;2023-03-25T04:34:11;97910.84;;;6.05;87.24
48926;BME280;39838;59.938;30.642;2023-03-25T04:36:39;97910.00;;;6.04;86.92
48926;BME280;39838;59.938;30.642;2023-03-25T04:39:08;97912.56;;;6.02;86.95
48926;BME280;39838;59.938;30.642;2023-03-25T04:41:36;97906.56;;;6.04;87.03
48926;BME280;39838;59.938;30.642;2023-03-25T04:44:04;97903.09;;;6.05;87.04
48926;BME280;39838;59.938;30.642;2023-03-25T04:46:35;97888.47;;;6.05;87.14
48926;BME280;39838;59.938;30.642;2023-03-25T04:49:04;97890.88;;;6.13;86.89
48926;BME280;39838;59.938;30.642;2023-03-25T04:51:38;97879.75;;;6.11;86.76
48926;BME280;39838;59.938;30.642;2023-03-25T04:54:09;97887.31;;;6.18;86.31
48926;BME280;39838;59.938;30.642;2023-03-25T04:56:36;97882.81;;;6.26;86.48
48926;BME280;39838;59.938;30.642;2023-03-25T04:59:05;97889.50;;;6.34;86.48
48926;BME280;39838;59.938;30.642;2023-03-25T05:01:36;97896.16;;;6.42;86.01
48926;BME280;39838;59.938;30.642;2023-03-25T05:04:08;97897.75;;;6.48;85.81
48926;BME280;39838;59.938;30.642;2023-03-25T05:06:38;97876.50;;;6.38;85.42
48926;BME280;39838;59.938;30.642;2023-03-25T05:09:09;97881.38;;;6.50;85.26
48926;BME280;39838;59.938;30.642;2023-03-25T05:11:37;97882.97;;;6.54;85.38
48926;BME280;39838;59.938;30.642;2023-03-25T05:14:06;97893.22;;;6.57;85.14
48926;BME280;39838;59.938;30.642;2023-03-25T05:16:35;97892.44;;;6.54;85.13
48926;BME280;39838;59.938;30.642;2023-03-25T05:19:03;97883.84;;;6.53;85.27
48926;BME280;39838;59.938;30.642;2023-03-25T05:21:31;97885.50;;;6.56;85.12
48926;BME280;39838;59.938;30.642;2023-03-25T05:24:00;97883.81;;;6.55;84.92
48926;BME280;39838;59.938;30.642;2023-03-25T05:26:28;97885.50;;;6.57;85.03
48926;BME280;39838;59.938;30.642;2023-03-25T05:29:00;97875.22;;;6.54;84.90
48926;BME280;39838;59.938;30.642;2023-03-25T05:31:28;97874.13;;;6.65;84.66
48926;BME280;39838;59.938;30.642;2023-03-25T05:33:56;97888.66;;;6.67;84.67
48926;BME280;39838;59.938;30.642;2023-03-25T05:36:24;97892.97;;;6.67;84.43
48926;BME280;39838;59.938;30.642;2023-03-25T05:38:52;97888.63;;;6.69;84.23
48926;BME280;39838;59.938;30.642;2023-03-25T05:41:20;97886.88;;;6.69;84.27
48926;BME280;39838;59.938;30.642;2023-03-25T05:43:57;97870.59;;;6.67;84.29
48926;BME280;39838;59.938;30.642;2023-03-25T05:46:25;97884.25;;;6.72;84.29
48926;BME280;39838;59.938;30.642;2023-03-25T05:48:53;97887.72;;;6.70;83.84
48926;BME280;39838;59.938;30.642;2023-03-25T05:51:24;97863.13;;;6.56;84.29
48926;BME280;39838;59.938;30.642;2023-03-25T05:53:52;97876.34;;;6.77;84.17
48926;BME280;39838;59.938;30.642;2023-03-25T05:56:21;97871.81;;;6.87;83.92
48926;BME280;39838;59.938;30.642;2023-03-25T05:58:50;97868.22;;;6.92;83.75
48926;BME280;39838;59.938;30.642;2023-03-25T06:01:19;97873.28;;;6.95;83.56
48926;BME280;39838;59.938;30.642;2023-03-25T06:03:47;97883.63;;;6.95;83.58
48926;BME280;39838;59.938;30.642;2023-03-25T06:06:15;97886.13;;;6.98;83.22
48926;BME280;39838;59.938;30.642;2023-03-25T06:08:46;97878.41;;;6.97;83.03
48926;BME280;39838;59.938;30.642;2023-03-25T06:11:15;97882.59;;;7.01;82.82
48926;BME280;39838;59.938;30.642;2023-03-25T06:13:44;97871.28;;;7.06;82.72
48926;BME280;39838;59.938;30.642;2023-03-25T06:16:15;97852.59;;;6.97;82.49
48926;BME280;39838;59.938;30.642;2023-03-25T06:18:44;97877.97;;;7.14;82.28
48926;BME280;39838;59.938;30.642;2023-03-25T06:21:17;97872.78;;;7.14;82.21
48926;BME280;39838;59.938;30.642;2023-03-25T06:23:46;97877.13;;;7.13;81.50
48926;BME280;39838;59.938;30.642;2023-03-25T06:26:14;97876.22;;;7.14;81.61
48926;BME280;39838;59.938;30.642;2023-03-25T06:28:41;97876.28;;;7.13;81.67
48926;BME280;39838;59.938;30.642;2023-03-25T06:31:12;97872.78;;;7.14;81.56
48926;BME280;39838;59.938;30.642;2023-03-25T06:33:41;97875.38;;;7.14;81.12
48926;BME280;39838;59.938;30.642;2023-03-25T06:36:09;97874.59;;;7.11;81.14
48926;BME280;39838;59.938;30.642;2023-03-25T06:38:37;97871.19;;;7.09;81.09
48926;BME280;39838;59.938;30.642;2023-03-25T06:41:06;97861.78;;;7.07;81.12
48926;BME280;39838;59.938;30.642;2023-03-25T06:43:34;97867.81;;;7.07;81.05
48926;BME280;39838;59.938;30.642;2023-03-25T06:46:01;97850.84;;;6.99;81.01
48926;BME280;39838;59.938;30.642;2023-03-25T06:48:28;97857.38;;;7.10;81.19
48926;BME280;39838;59.938;30.642;2023-03-25T06:50:59;97858.09;;;7.16;80.75
48926;BME280;39838;59.938;30.642;2023-03-25T06:53:26;97848.66;;;7.15;80.74
48926;BME280;39838;59.938;30.642;2023-03-25T06:55:55;97844.44;;;7.12;80.62
48926;BME280;39838;59.938;30.642;2023-03-25T06:58:24;97840.19;;;7.09;80.59
48926;BME280;39838;59.938;30.642;2023-03-25T07:00:59;97836.94;;;7.03;80.49
48926;BME280;39838;59.938;30.642;2023-03-25T07:03:28;97835.34;;;6.99;80.67
48926;BME280;39838;59.938;30.642;2023-03-25T07:05:55;97835.25;;;7.02;80.86
48926;BME280;39838;59.938;30.642;2023-03-25T07:08:23;97835.19;;;7.05;81.49
48926;BME280;39838;59.938;30.642;2023-03-25T07:11:18;97835.94;;;7.08;80.82
48926;BME280;39838;59.938;30.642;2023-03-25T07:14:43;97819.63;;;7.06;80.72
48926;BME280;39838;59.938;30.642;2023-03-25T07:21:40;97763.81;;;6.73;80.29
48926;BME280;39838;59.938;30.642;2023-03-25T07:24:38;97825.78;;;7.02;79.41
48926;BME280;39838;59.938;30.642;2023-03-25T07:27:46;97830.84;;;7.05;80.37
48926;BME280;39838;59.938;30.642;2023-03-25T07:30:14;97811.84;;;7.08;79.58
48926;BME280;39838;59.938;30.642;2023-03-25T07:32:43;97803.19;;;7.09;79.54
48926;BME280;39838;59.938;30.642;2023-03-25T07:35:10;97797.19;;;7.08;79.42
48926;BME280;39838;59.938;30.642;2023-03-25T07:37:37;97793.41;;;7.20;79.01
48926;BME280;39838;59.938;30.642;2023-03-25T07:40:06;97794.94;;;7.27;79.08
48926;BME280;39838;59.938;30.642;2023-03-25T07:42:35;97798.00;;;7.40;78.65
48926;BME280;39838;59.938;30.642;2023-03-25T07:45:04;97767.91;;;7.37;78.19
48926;BME280;39838;59.938;30.642;2023-03-25T07:47:32;97783.22;;;7.45;77.74
48926;BME280;39838;59.938;30.642;2023-03-25T07:50:00;97778.03;;;7.45;77.85
48926;BME280;39838;59.938;30.642;2023-03-25T07:52:27;97774.69;;;7.42;77.72
48926;BME280;39838;59.938;30.642;2023-03-25T07:54:55;97786.94;;;7.35;77.07
48926;BME280;39838;59.938;30.642;2023-03-25T07:57:22;97776.84;;;7.27;77.19
48926;BME280;39838;59.938;30.642;2023-03-25T07:59:49;97765.84;;;7.21;77.22
48926;BME280;39838;59.938;30.642;2023-03-25T08:02:16;97768.63;;;7.15;76.85
48926;BME280;39838;59.938;30.642;2023-03-25T08:04:45;97767.84;;;7.11;76.47
48926;BME280;39838;59.938;30.642;2023-03-25T08:07:12;97762.03;;;7.04;76.60
48926;BME280;39838;59.938;30.642;2023-03-25T08:09:41;97759.59;;;7.00;76.08
48926;BME280;39838;59.938;30.642;2023-03-25T08:12:08;97775.19;;;6.95;76.42
48926;BME280;39838;59.938;30.642;2023-03-25T08:14:35;97769.25;;;6.93;76.44
48926;BME280;39838;59.938;30.642;2023-03-25T08:17:04;97754.66;;;6.92;76.38
48926;BME280;39838;59.938;30.642;2023-03-25T08:19:31;97747.03;;;6.88;76.13
48926;BME280;39838;59.938;30.642;2023-03-25T08:22:00;97751.63;;;6.78;76.35
48926;BME280;39838;59.938;30.642;2023-03-25T08:24:27;97752.19;;;6.88;76.16
48926;BME280;39838;59.938;30.642;2023-03-25T08:26:57;97731.00;;;6.78;75.82
48926;BME280;39838;59.938;30.642;2023-03-25T08:29:25;97753.09;;;6.87;75.67
48926;BME280;39838;59.938;30.642;2023-03-25T08:31:52;97742.81;;;6.85;75.93
48926;BME280;39838;59.938;30.642;2023-03-25T08:34:21;97754.16;;;6.79;76.02
48926;BME280;39838;59.938;30.642;2023-03-25T08:36:48;97772.19;;;6.81;76.08
48926;BME280;39838;59.938;30.642;2023-03-25T08:39:17;97760.22;;;6.77;76.91
48926;BME280;39838;59.938;30.642;2023-03-25T08:41:46;97774.91;;;6.75;76.98
48926;BME280;39838;59.938;30.642;2023-03-25T08:44:13;97777.63;;;6.70;76.98
48926;BME280;39838;59.938;30.642;2023-03-25T08:46:41;97775.03;;;6.70;77.11
48926;BME280;39838;59.938;30.642;2023-03-25T08:49:08;97778.56;;;6.68;77.52
48926;BME280;39838;59.938;30.642;2023-03-25T08:51:35;97777.03;;;6.61;77.65
48926;BME280;39838;59.938;30.642;2023-03-25T08:54:02;97796.03;;;6.58;78.16
48926;BME280;39838;59.938;30.642;2023-03-25T08:56:31;97779.00;;;6.52;78.25
48926;BME280;39838;59.938;30.642;2023-03-25T08:58:58;97784.34;;;6.45;78.42
48926;BME280;39838;59.938;30.642;2023-03-25T09:01:26;97782.66;;;6.44;78.83
48926;BME280;39838;59.938;30.642;2023-03-25T09:03:53;97790.53;;;6.39;79.68
48926;BME280;39838;59.938;30.642;2023-03-25T09:06:22;97787.94;;;6.39;79.83
48926;BME280;39838;59.938;30.642;2023-03-25T09:08:49;97798.38;;;6.35;80.43
48926;BME280;39838;59.938;30.642;2023-03-25T09:11:17;97794.09;;;6.34;80.26
48926;BME280;39838;59.938;30.642;2023-03-25T09:13:45;97800.06;;;6.36;80.22
48926;BME280;39838;59.938;30.642;2023-03-25T09:16:12;97790.69;;;6.33;80.12
48926;BME280;39838;59.938;30.642;2023-03-25T09:18:40;97795.19;;;6.25;79.82
48926;BME280;39838;59.938;30.642;2023-03-25T09:21:07;97803.88;;;6.21;80.54
48926;BME280;39838;59.938;30.642;2023-03-25T09:23:34;97792.72;;;6.20;80.11
48926;BME280;39838;59.938;30.642;2023-03-25T09:26:02;97801.38;;;6.18;80.34
48926;BME280;39838;59.938;30.642;2023-03-25T09:28:31;97806.66;;;6.13;80.18
48926;BME280;39838;59.938;30.642;2023-03-25T09:31:01;97806.69;;;6.12;80.74
48926;BME280;39838;59.938;30.642;2023-03-25T09:33:28;97815.22;;;6.14;80.78
48926;BME280;39838;59.938;30.642;2023-03-25T09:35:59;97803.22;;;6.13;80.53
48926;BME280;39838;59.938;30.642;2023-03-25T09:38:27;97805.91;;;6.08;80.72
48926;BME280;39838;59.938;30.642;2023-03-25T09:41:03;97800.75;;;6.08;80.17
48926;BME280;39838;59.938;30.642;2023-03-25T09:43:38;97781.44;;;5.90;79.99
48926;BME280;39838;59.938;30.642;2023-03-25T09:46:15;97807.84;;;6.00;80.22
48926;BME280;39838;59.938;30.642;2023-03-25T09:48:45;97785.56;;;5.97;79.74
48926;BME280;39838;59.938;30.642;2023-03-25T09:51:18;97814.06;;;5.91;79.35
48926;BME280;39838;59.938;30.642;2023-03-25T09:53:52;97769.22;;;5.63;79.43
48926;BME280;39838;59.938;30.642;2023-03-25T09:56:47;97813.38;;;5.83;79.39
48926;BME280;39838;59.938;30.642;2023-03-25T09:59:18;97830.16;;;6.01;79.67
48926;BME280;39838;59.938;30.642;2023-03-25T10:01:53;97849.16;;;5.97;79.90
48926;BME280;39838;59.938;30.642;2023-03-25T10:08:33;97859.53;;;5.54;81.09
48926;BME280;39838;59.938;30.642;2023-03-25T10:15:00;97872.28;;;5.19;80.43
48926;BME280;39838;59.938;30.642;2023-03-25T10:17:37;97888.00;;;5.06;79.93
48926;BME280;39838;59.938;30.642;2023-03-25T10:20:11;97901.16;;;4.90;80.38
48926;BME280;39838;59.938;30.642;2023-03-25T10:22:50;97869.41;;;4.91;81.23
48926;BME280;39838;59.938;30.642;2023-03-25T10:25:26;97897.88;;;4.82;81.43
48926;BME280;39838;59.938;30.642;2023-03-25T10:27:55;97909.56;;;4.99;80.88
48926;BME280;39838;59.938;30.642;2023-03-25T10:30:25;97928.34;;;5.04;81.07
48926;BME280;39838;59.938;30.642;2023-03-25T10:32:56;97918.13;;;4.99;80.57
48926;BME280;39838;59.938;30.642;2023-03-25T10:35:27;97929.31;;;4.98;80.35
48926;BME280;39838;59.938;30.642;2023-03-25T10:38:01;97927.66;;;4.94;79.73
48926;BME280;39838;59.938;30.642;2023-03-25T10:40:37;97958.69;;;4.86;79.69
48926;BME280;39838;59.938;30.642;2023-03-25T10:43:17;97951.97;;;4.78;79.92
48926;BME280;39838;59.938;30.642;2023-03-25T10:45:48;97975.25;;;4.70;79.90
48926;BME280;39838;59.938;30.642;2023-03-25T10:48:21;97968.47;;;4.66;80.05
48926;BME280;39838;59.938;30.642;2023-03-25T10:50:51;97950.81;;;4.45;80.61
48926;BME280;39838;59.938;30.642;2023-03-25T10:53:23;97964.66;;;4.36;80.52
48926;BME280;39838;59.938;30.642;2023-03-25T10:55:53;97935.19;;;4.03;80.63
48926;BME280;39838;59.938;30.642;2023-03-25T10:58:23;97995.81;;;4.16;81.56
48926;BME280;39838;59.938;30.642;2023-03-25T11:00:50;98012.16;;;4.10;81.66
48926;BME280;39838;59.938;30.642;2023-03-25T11:03:21;98000.31;;;3.99;82.24
48926;BME280;39838;59.938;30.642;2023-03-25T11:05:51;98020.84;;;4.02;82.44
48926;BME280;39838;59.938;30.642;2023-03-25T11:08:19;98022.59;;;3.98;82.29
48926;BME280;39838;59.938;30.642;2023-03-25T11:10:49;98038.00;;;3.98;82.81
48926;BME280;39838;59.938;30.642;2023-03-25T11:13:23;98033.03;;;3.86;83.26
48926;BME280;39838;59.938;30.642;2023-03-25T11:15:52;98045.88;;;3.84;84.10
48926;BME280;39838;59.938;30.642;2023-03-25T11:18:26;98033.31;;;3.62;84.35
48926;BME280;39838;59.938;30.642;2023-03-25T11:20:56;98067.44;;;3.71;84.59
48926;BME280;39838;59.938;30.642;2023-03-25T11:23:26;98065.81;;;3.64;85.19
48926;BME280;39838;59.938;30.642;2023-03-25T11:25:54;98088.97;;;3.61;85.96
48926;BME280;39838;59.938;30.642;2023-03-25T11:28:35;98077.06;;;3.51;85.64
48926;BME280;39838;59.938;30.642;2023-03-25T11:31:13;98092.41;;;3.57;85.59
48926;BME280;39838;59.938;30.642;2023-03-25T11:33:43;98072.06;;;3.40;85.97
48926;BME280;39838;59.938;30.642;2023-03-25T11:36:24;98102.03;;;3.37;86.16
48926;BME280;39838;59.938;30.642;2023-03-25T11:38:57;98114.75;;;3.50;86.12
48926;BME280;39838;59.938;30.642;2023-03-25T11:41:32;98108.81;;;3.44;86.30
48926;BME280;39838;59.938;30.642;2023-03-25T11:44:02;98108.72;;;3.51;86.79
48926;BME280;39838;59.938;30.642;2023-03-25T11:46:31;98095.19;;;3.40;86.80
48926;BME280;39838;59.938;30.642;2023-03-25T11:49:11;98118.31;;;3.36;86.88
48926;BME280;39838;59.938;30.642;2023-03-25T11:51:44;98138.03;;;3.31;87.09
48926;BME280;39838;59.938;30.642;2023-03-25T11:54:13;98128.72;;;3.20;87.27
48926;BME280;39838;59.938;30.642;2023-03-25T11:56:43;98159.50;;;3.20;88.03
48926;BME280;39838;59.938;30.642;2023-03-25T11:59:20;98173.22;;;3.16;87.59
48926;BME280;39838;59.938;30.642;2023-03-25T12:01:50;98168.91;;;3.18;88.29
48926;BME280;39838;59.938;30.642;2023-03-25T12:04:21;98157.06;;;3.04;88.10
48926;BME280;39838;59.938;30.642;2023-03-25T12:06:57;98204.00;;;3.16;87.96
48926;BME280;39838;59.938;30.642;2023-03-25T12:09:25;98181.75;;;3.17;87.93
48926;BME280;39838;59.938;30.642;2023-03-25T12:14:46;98216.00;;;3.11;87.18
48926;BME280;39838;59.938;30.642;2023-03-25T12:17:23;98216.88;;;3.12;86.89
48926;BME280;39838;59.938;30.642;2023-03-25T12:20:00;98229.69;;;3.10;86.28
48926;BME280;39838;59.938;30.642;2023-03-25T12:22:47;98206.69;;;2.98;86.02
48926;BME280;39838;59.938;30.642;2023-03-25T12:25:24;98256.22;;;3.09;86.13
48926;BME280;39838;59.938;30.642;2023-03-25T12:28:10;98275.06;;;3.07;86.23
48926;BME280;39838;59.938;30.642;2023-03-25T12:30:49;98267.38;;;3.02;86.63
48926;BME280;39838;59.938;30.642;2023-03-25T12:33:30;98298.16;;;3.05;86.50
48926;BME280;39838;59.938;30.642;2023-03-25T12:36:15;98291.34;;;3.01;86.65
48926;BME280;39838;59.938;30.642;2023-03-25T12:38:51;98299.91;;;2.91;87.13
48926;BME280;39838;59.938;30.642;2023-03-25T12:41:22;98303.34;;;2.88;87.19
48926;BME280;39838;59.938;30.642;2023-03-25T12:44:04;98311.94;;;2.80;87.32
48926;BME280;39838;59.938;30.642;2023-03-25T12:46:52;98317.09;;;2.80;87.24
48926;BME280;39838;59.938;30.642;2023-03-25T12:49:33;98309.44;;;2.60;86.78
48926;BME280;39838;59.938;30.642;2023-03-25T12:52:11;98321.38;;;2.73;86.85
48926;BME280;39838;59.938;30.642;2023-03-25T12:54:54;98342.75;;;2.63;86.79
48926;BME280;39838;59.938;30.642;2023-03-25T12:57:36;98358.13;;;2.63;87.02
48926;BME280;39838;59.938;30.642;2023-03-25T13:00:21;98355.59;;;2.61;86.95
48926;BME280;39838;59.938;30.642;2023-03-25T13:03:20;98370.97;;;2.57;87.05
48926;BME280;39838;59.938;30.642;2023-03-25T13:05:53;98338.56;;;2.28;87.27
48926;BME280;39838;59.938;30.642;2023-03-25T13:08:29;98387.22;;;2.50;87.41
48926;BME280;39838;59.938;30.642;2023-03-25T13:11:02;98400.06;;;2.45;87.72
48926;BME280;39838;59.938;30.642;2023-03-25T13:13:32;98409.44;;;2.43;87.65
48926;BME280;39838;59.938;30.642;2023-03-25T13:16:04;98403.47;;;2.41;87.87
48926;BME280;39838;59.938;30.642;2023-03-25T13:18:37;98410.31;;;2.37;87.72
48926;BME280;39838;59.938;30.642;2023-03-25T13:21:09;98439.34;;;2.39;87.81
48926;BME280;39838;59.938;30.642;2023-03-25T13:23:39;98424.84;;;2.40;88.09
48926;BME280;39838;59.938;30.642;2023-03-25T13:26:09;98433.38;;;2.39;87.99
48926;BME280;39838;59.938;30.642;2023-03-25T13:28:42;98437.66;;;2.32;87.83
48926;BME280;39838;59.938;30.642;2023-03-25T13:31:14;98451.28;;;2.30;87.96
48926;BME280;39838;59.938;30.642;2023-03-25T13:33:44;98459.00;;;2.17;88.09
48926;BME280;39838;59.938;30.642;2023-03-25T13:36:16;98464.13;;;2.21;88.09
48926;BME280;39838;59.938;30.642;2023-03-25T13:38:50;98445.31;;;2.14;88.18
48926;BME280;39838;59.938;30.642;2023-03-25T13:41:22;98469.25;;;2.24;88.35